createdAt,value
2023-02-14T00:09:23.995Z,94.43
2023-02-14T00:19:45.424Z,94.21
2023-02-14T00:30:08.127Z,93.93
2023-02-14T00:40:29.514Z,94.42
2023-02-14T00:50:50.880Z,93.75
2023-02-14T01:01:13.017Z,93.19
2023-02-14T01:11:34.551Z,93.82
2023-02-14T01:21:56.070Z,92.53
2023-02-14T01:32:17.536Z,94.02
2023-02-14T01:42:39.022Z,93.47
2023-02-14T01:53:04.517Z,93.07
2023-02-14T02:03:28.921Z,93.36
2023-02-14T02:13:50.322Z,93.03
2023-02-14T02:24:17.598Z,93.13
2023-02-14T02:34:57.773Z,92.51
2023-02-14T02:45:31.357Z,93.33
2023-02-14T02:56:17.932Z,93.56
2023-02-14T03:06:39.274Z,94.13
2023-02-14T03:17:03.657Z,93.86
2023-02-14T03:27:45.235Z,93.66
2023-02-14T03:38:15.216Z,93.58
2023-02-14T03:48:37.798Z,93.83
2023-02-14T03:59:02.313Z,93.27
2023-02-14T04:09:23.825Z,93.50
2023-02-14T04:19:45.786Z,93.53
2023-02-14T04:30:07.501Z,93.42
2023-02-14T04:40:29.069Z,93.53
2023-02-14T04:50:53.830Z,93.83
2023-02-14T05:01:15.322Z,93.13
2023-02-14T05:11:36.689Z,93.48
2023-02-14T05:21:58.024Z,93.34
2023-02-14T05:32:19.386Z,92.68
2023-02-14T05:42:40.747Z,93.50
2023-02-14T05:53:02.208Z,93.07
2023-02-14T06:03:23.563Z,93.69
2023-02-14T06:13:44.903Z,93.22
2023-02-14T06:24:06.262Z,93.76
2023-02-14T06:34:27.625Z,93.39
2023-02-14T06:44:48.978Z,93.31
2023-02-14T06:55:12.165Z,93.62
2023-02-14T07:05:33.822Z,93.17
2023-02-14T07:15:55.342Z,94.26
2023-02-14T07:26:18.183Z,94.45
2023-02-14T07:36:39.803Z,94.70
2023-02-14T07:47:01.197Z,95.26
2023-02-14T07:57:22.594Z,94.44
2023-02-14T08:07:44.277Z,95.07
2023-02-14T08:18:05.685Z,95.06
2023-02-14T08:28:27.502Z,95.62
2023-02-14T08:38:49.205Z,94.66
2023-02-14T08:49:10.953Z,96.00
2023-02-14T08:59:32.329Z,96.37
2023-02-14T09:09:53.687Z,95.36
2023-02-14T09:20:15.655Z,94.66
2023-02-14T09:30:37.092Z,94.77
2023-02-14T09:40:58.763Z,95.41
2023-02-14T09:51:23.268Z,96.02
2023-02-14T10:02:03.662Z,93.57
2023-02-14T10:12:37.277Z,94.13
2023-02-14T10:23:01.747Z,93.75
2023-02-14T10:33:28.546Z,93.16
2023-02-14T10:43:52.965Z,93.43
2023-02-14T10:54:22.497Z,92.67
2023-02-14T11:04:46.747Z,92.93
2023-02-14T11:15:09.702Z,90.22
2023-02-14T11:25:31.634Z,90.54
2023-02-14T11:35:53.555Z,89.55
2023-02-14T11:46:21.061Z,89.86
2023-02-14T11:57:02.750Z,89.23
2023-02-14T12:07:44.120Z,88.11
2023-02-14T12:18:22.607Z,88.63
2023-02-14T12:28:47.557Z,87.92
2023-02-14T12:39:15.854Z,86.53
2023-02-14T12:49:43.383Z,86.14
2023-02-14T13:00:17.488Z,86.52
2023-02-14T13:10:45.076Z,86.44
2023-02-14T13:21:08.332Z,86.29
2023-02-14T13:31:30.887Z,86.72
2023-02-14T13:41:52.321Z,86.88
2023-02-14T13:52:13.879Z,86.91
2023-02-14T14:02:43.128Z,86.08
2023-02-14T14:13:07.048Z,85.43
2023-02-14T14:23:33.212Z,84.60
2023-02-14T14:33:58.806Z,84.03
2023-02-14T14:44:20.348Z,83.35
2023-02-14T14:54:41.760Z,83.61
2023-02-14T15:05:17.257Z,83.28
2023-02-14T15:15:38.899Z,82.74
2023-02-14T15:26:00.838Z,83.22
2023-02-14T15:36:25.200Z,81.87
2023-02-14T15:46:47.180Z,86.31
2023-02-14T15:57:18.370Z,88.46
2023-02-14T16:07:40.155Z,88.72
2023-02-14T16:18:06.954Z,89.32
2023-02-14T16:28:33.594Z,89.73
2023-02-14T16:38:55.579Z,89.55
2023-02-14T16:49:16.942Z,88.53
2023-02-14T16:59:38.293Z,88.27
2023-02-14T17:10:02.104Z,88.07
2023-02-14T17:20:24.355Z,88.08
2023-02-14T17:30:45.889Z,88.21
2023-02-14T17:41:18.648Z,87.47
2023-02-14T17:51:40.031Z,87.29
2023-02-14T18:02:01.410Z,88.36
2023-02-14T18:12:22.836Z,88.64
2023-02-14T18:22:45.985Z,88.63
2023-02-14T18:33:07.424Z,88.76
2023-02-14T18:43:28.782Z,88.61
2023-02-14T18:53:54.389Z,89.24
2023-02-14T19:04:17.623Z,89.82
2023-02-14T19:14:38.963Z,89.90
2023-02-14T19:25:00.318Z,90.66
2023-02-14T19:35:21.724Z,90.85
2023-02-14T19:45:43.167Z,90.85
2023-02-14T19:56:04.617Z,90.72
2023-02-14T20:06:27.304Z,90.47
2023-02-14T20:16:49.113Z,91.30
2023-02-14T20:27:10.593Z,90.65
2023-02-14T20:37:32.034Z,91.31
2023-02-14T20:47:53.684Z,90.34
2023-02-14T20:58:15.112Z,91.50
2023-02-14T21:08:36.507Z,90.58
2023-02-14T21:19:01.382Z,90.79
2023-02-14T21:29:22.925Z,90.51
2023-02-14T21:39:46.203Z,90.59
2023-02-14T21:50:26.359Z,90.71
2023-02-14T22:00:48.085Z,90.52
2023-02-14T22:11:11.009Z,89.99
2023-02-14T22:21:33.470Z,90.82
2023-02-14T22:31:54.936Z,90.69
2023-02-14T22:42:16.351Z,90.68
2023-02-14T22:52:38.416Z,90.88
2023-02-14T23:02:59.857Z,91.55
2023-02-14T23:13:40.053Z,91.35
2023-02-14T23:24:01.402Z,90.13
2023-02-14T23:34:27.080Z,90.81
2023-02-14T23:44:49.069Z,91.44
2023-02-14T23:55:11.201Z,91.17
